Allison, Pennsylvania
Current Conditions -  °F | °C
As of 7:53 PM on Monday 22 Dec 2014 (Local Time) from KMGW Reporting Station
Clear Clear  
Wind Chill:   Ceiling: Unl
Heat Index:   Visibility: 10mi
Dew Point: -2°   Wind: 7mph
Humidity: 67%   Direction: NA
Pressure: 29.96"   Gusts: NA
Location:  39.99°N, 79.86°W
Report Text: KMGW 230053Z VRB06KT 10SM CLR 04/M02 A2996 RMK AO2 SLP154 T00391017
Loading
Personal Weather Stations






























Interactive Weather Map New forecast layout! Learn more

10-Day Weather Forecast

Advertisements
Track Severe Weather on mobile